Time;durP1;ratioP1;P1;durP2;ratioP2;P2;SDS_P1;SDS_P2;PMS_P1;PMS_P2;Temp;Humidity;BMP_temperature;BMP_pressure;BME280_temperature;BME280_humidity;BME280_pressure;Samples;Min_cycle;Max_cycle;Signal;HPM_P1;HPM_P2
2022/03/03 00:01:57;;;;;;;63.78;33.40;;;;;;;;;;5076901;28;20052;-60
2022/03/03 00:04:23;;;;;;;64.53;32.17;;;;;;;;;;5075009;28;20046;-60
2022/03/03 00:06:50;;;;;;;64.15;32.20;;;;;;;;;;5072824;28;20047;-60
2022/03/03 00:09:16;;;;;;;63.15;32.53;;;;;;;;;;5071541;28;20064;-61
2022/03/03 00:11:42;;;;;;;68.38;32.97;;;;;;;;;;5071558;28;20149;-60
2022/03/03 00:14:08;;;;;;;62.65;30.77;;;;;;;;;;5079830;28;20046;-60
2022/03/03 00:16:34;;;;;;;66.28;32.00;;;;;;;;;;5083130;28;20511;-60
2022/03/03 00:19:00;;;;;;;61.97;31.13;;;;;;;;;;5084903;28;20406;-60
2022/03/03 00:21:26;;;;;;;60.25;32.30;;;;;;;;;;5081539;28;20561;-60
2022/03/03 00:23:52;;;;;;;62.85;31.40;;;;;;;;;;5077211;28;20107;-61
2022/03/03 00:26:18;;;;;;;61.08;30.33;;;;;;;;;;5074682;28;20040;-60
2022/03/03 00:28:44;;;;;;;59.03;30.70;;;;;;;;;;5073959;28;20047;-60
2022/03/03 00:31:10;;;;;;;59.17;30.33;;;;;;;;;;5074424;28;20509;-60
2022/03/03 00:33:36;;;;;;;60.78;30.85;;;;;;;;;;5073547;28;20067;-60
2022/03/03 00:36:02;;;;;;;64.95;30.73;;;;;;;;;;5074776;28;20387;-60
2022/03/03 00:38:28;;;;;;;55.28;29.95;;;;;;;;;;5088365;28;20046;-60
2022/03/03 00:40:54;;;;;;;64.45;31.85;;;;;;;;;;5087190;28;20044;-61
2022/03/03 00:43:20;;;;;;;60.75;30.35;;;;;;;;;;5073048;28;20449;-60
2022/03/03 00:45:46;;;;;;;56.90;29.23;;;;;;;;;;5072730;28;20045;-60
2022/03/03 00:48:12;;;;;;;58.78;31.33;;;;;;;;;;5083707;28;20513;-60
2022/03/03 00:50:38;;;;;;;64.63;30.88;;;;;;;;;;5073347;28;20079;-60
2022/03/03 00:53:04;;;;;;;57.55;31.65;;;;;;;;;;5086902;28;20048;-60
2022/03/03 00:55:30;;;;;;;58.67;31.05;;;;;;;;;;5074474;28;20036;-60
2022/03/03 00:57:56;;;;;;;59.50;30.23;;;;;;;;;;5077485;28;20383;-60
2022/03/03 01:00:22;;;;;;;56.65;28.85;;;;;;;;;;5072471;28;20051;-61
2022/03/03 01:02:49;;;;;;;60.35;31.65;;;;;;;;;;5074915;28;20068;-60
2022/03/03 01:05:15;;;;;;;55.97;29.50;;;;;;;;;;5073980;28;20040;-60
2022/03/03 01:07:41;;;;;;;52.42;27.85;;;;;;;;;;5071202;28;20034;-60
2022/03/03 01:10:08;;;;;;;54.85;29.05;;;;;;;;;;5076342;28;20433;-60
2022/03/03 01:12:34;;;;;;;57.03;28.70;;;;;;;;;;5087594;28;20044;-60
2022/03/03 01:15:00;;;;;;;56.95;29.00;;;;;;;;;;5077495;28;20501;-60
2022/03/03 01:17:26;;;;;;;59.25;30.67;;;;;;;;;;5078141;28;20177;-60
2022/03/03 01:19:52;;;;;;;57.10;29.48;;;;;;;;;;5079957;28;20044;-60
2022/03/03 01:22:18;;;;;;;56.10;30.45;;;;;;;;;;5088642;28;20040;-60
2022/03/03 01:24:45;;;;;;;55.72;28.83;;;;;;;;;;5092374;28;20188;-60
2022/03/03 01:27:11;;;;;;;54.47;28.92;;;;;;;;;;5082022;28;20043;-61
2022/03/03 01:29:37;;;;;;;55.53;29.38;;;;;;;;;;5071620;28;20044;-60
2022/03/03 01:32:03;;;;;;;52.78;28.15;;;;;;;;;;5076976;28;20066;-60
2022/03/03 01:34:29;;;;;;;53.50;28.63;;;;;;;;;;5073045;28;20046;-60
2022/03/03 01:36:55;;;;;;;52.45;28.15;;;;;;;;;;5073428;28;20107;-60
2022/03/03 01:39:21;;;;;;;55.03;29.02;;;;;;;;;;5070955;28;20124;-61
2022/03/03 01:41:48;;;;;;;50.83;28.85;;;;;;;;;;5086810;28;20439;-60
2022/03/03 01:44:14;;;;;;;51.10;27.83;;;;;;;;;;5073412;28;20036;-60
2022/03/03 01:46:50;;;;;;;54.38;29.13;;;;;;;;;;5078974;28;20104;-60
2022/03/03 01:49:16;;;;;;;52.58;27.65;;;;;;;;;;5086098;28;20082;-60
2022/03/03 01:51:41;;;;;;;53.45;28.25;;;;;;;;;;5081662;28;20036;-60
2022/03/03 01:54:07;;;;;;;52.67;27.95;;;;;;;;;;5073018;28;20055;-60
2022/03/03 01:56:33;;;;;;;52.40;28.00;;;;;;;;;;5072061;28;20037;-60
2022/03/03 01:58:59;;;;;;;52.72;28.23;;;;;;;;;;5075884;28;20044;-60
2022/03/03 02:01:25;;;;;;;49.30;27.52;;;;;;;;;;5074042;28;20128;-60
2022/03/03 02:03:51;;;;;;;55.35;29.45;;;;;;;;;;5086518;28;20177;-60
2022/03/03 02:06:17;;;;;;;57.72;29.05;;;;;;;;;;5073133;28;20044;-60
2022/03/03 02:08:43;;;;;;;52.75;29.35;;;;;;;;;;5072484;28;20041;-60
2022/03/03 02:11:09;;;;;;;51.40;28.77;;;;;;;;;;5072870;28;20032;-60
2022/03/03 02:13:36;;;;;;;51.55;28.63;;;;;;;;;;5072384;28;20071;-60
2022/03/03 02:16:02;;;;;;;52.35;27.92;;;;;;;;;;5080918;28;20465;-60
2022/03/03 02:18:28;;;;;;;52.45;27.98;;;;;;;;;;5073423;28;20090;-60
2022/03/03 02:20:54;;;;;;;54.30;27.75;;;;;;;;;;5072563;28;20075;-60
2022/03/03 02:23:19;;;;;;;52.17;28.75;;;;;;;;;;5072994;28;20032;-60
2022/03/03 02:25:46;;;;;;;46.42;27.00;;;;;;;;;;5072603;28;20032;-60
2022/03/03 02:28:12;;;;;;;56.03;27.88;;;;;;;;;;5076256;28;20119;-60
2022/03/03 02:30:38;;;;;;;45.33;27.13;;;;;;;;;;5091116;28;20036;-60
2022/03/03 02:33:04;;;;;;;49.55;26.77;;;;;;;;;;5072723;28;20162;-60
2022/03/03 02:35:30;;;;;;;47.08;26.48;;;;;;;;;;5075066;28;20414;-60
2022/03/03 02:37:57;;;;;;;49.65;28.67;;;;;;;;;;5071940;28;20040;-60
2022/03/03 02:40:23;;;;;;;48.65;27.85;;;;;;;;;;5064693;28;20094;-61
2022/03/03 02:42:54;;;;;;;56.05;27.50;;;;;;;;;;5081793;28;20081;-60
2022/03/03 02:45:22;;;;;;;47.28;26.80;;;;;;;;;;5082490;28;20037;-60
2022/03/03 02:47:49;;;;;;;46.95;26.38;;;;;;;;;;5075794;28;20063;-60
2022/03/03 02:50:16;;;;;;;47.17;25.42;;;;;;;;;;5066001;28;20452;-60
2022/03/03 02:52:42;;;;;;;45.38;26.88;;;;;;;;;;5063497;28;20396;-60
2022/03/03 02:55:09;;;;;;;48.40;26.45;;;;;;;;;;5065389;28;20040;-60
2022/03/03 02:57:53;;;;;;;47.33;27.02;;;;;;;;;;5068754;28;20028;-60
2022/03/03 03:00:19;;;;;;;48.63;26.48;;;;;;;;;;5069115;28;20037;-60
2022/03/03 03:02:45;;;;;;;48.55;26.15;;;;;;;;;;5067211;28;20084;-60
2022/03/03 03:05:11;;;;;;;46.70;26.60;;;;;;;;;;5062565;28;20037;-60
2022/03/03 03:07:38;;;;;;;49.85;26.80;;;;;;;;;;5065434;28;20028;-60
2022/03/03 03:10:06;;;;;;;48.10;26.05;;;;;;;;;;5070395;28;20051;-60
2022/03/03 03:12:32;;;;;;;48.78;26.42;;;;;;;;;;5057765;28;20402;-60
2022/03/03 03:14:58;;;;;;;49.60;26.80;;;;;;;;;;5065855;28;20044;-60
2022/03/03 03:17:24;;;;;;;51.90;27.92;;;;;;;;;;5060186;28;20044;-60
2022/03/03 03:19:50;;;;;;;50.88;25.95;;;;;;;;;;5058670;28;20607;-60
2022/03/03 03:22:16;;;;;;;43.53;25.85;;;;;;;;;;5050737;28;20037;-60
2022/03/03 03:24:42;;;;;;;50.15;26.55;;;;;;;;;;5053062;28;20398;-60
2022/03/03 03:27:09;;;;;;;45.33;25.48;;;;;;;;;;5053004;28;20061;-60
2022/03/03 03:29:35;;;;;;;48.20;26.17;;;;;;;;;;5064012;28;20402;-60
2022/03/03 03:32:01;;;;;;;47.13;26.75;;;;;;;;;;5054224;28;20033;-60
2022/03/03 03:34:26;;;;;;;50.58;26.52;;;;;;;;;;5068085;28;20040;-60
2022/03/03 03:36:52;;;;;;;45.25;25.67;;;;;;;;;;5066816;28;20043;-60
2022/03/03 03:39:18;;;;;;;48.88;26.42;;;;;;;;;;5065845;28;20630;-60
2022/03/03 03:41:44;;;;;;;46.00;26.50;;;;;;;;;;5052539;28;20045;-60
2022/03/03 03:44:11;;;;;;;46.58;26.55;;;;;;;;;;5057209;28;20040;-60
2022/03/03 03:46:37;;;;;;;46.60;25.05;;;;;;;;;;5063155;28;20033;-60
2022/03/03 03:49:03;;;;;;;50.03;26.42;;;;;;;;;;5050921;28;20133;-60
2022/03/03 03:51:29;;;;;;;48.97;25.38;;;;;;;;;;5058789;28;20063;-60
2022/03/03 03:53:55;;;;;;;47.58;26.40;;;;;;;;;;5062535;28;20079;-60
2022/03/03 03:56:21;;;;;;;49.00;25.50;;;;;;;;;;5067976;28;20045;-60
2022/03/03 03:58:49;;;;;;;47.78;25.70;;;;;;;;;;5070009;28;20047;-60
2022/03/03 04:01:15;;;;;;;50.15;26.80;;;;;;;;;;5070609;28;20049;-60
2022/03/03 04:03:41;;;;;;;48.60;26.55;;;;;;;;;;5066991;28;20460;-60
2022/03/03 04:06:07;;;;;;;46.35;23.90;;;;;;;;;;5074263;28;20059;-60
2022/03/03 04:08:33;;;;;;;48.28;25.08;;;;;;;;;;5074048;28;20045;-60
2022/03/03 04:10:59;;;;;;;46.67;24.83;;;;;;;;;;5068658;28;20057;-60
2022/03/03 04:13:25;;;;;;;44.50;25.80;;;;;;;;;;5064562;28;20505;-60
2022/03/03 04:15:51;;;;;;;52.83;26.35;;;;;;;;;;5073638;28;20072;-60
2022/03/03 04:18:17;;;;;;;50.20;26.52;;;;;;;;;;5069163;28;20127;-60
2022/03/03 04:20:42;;;;;;;43.72;23.92;;;;;;;;;;5070590;28;20177;-60
2022/03/03 04:23:08;;;;;;;45.15;26.45;;;;;;;;;;5086039;28;20508;-60
2022/03/03 04:25:34;;;;;;;46.40;25.67;;;;;;;;;;5071411;28;20564;-60
2022/03/03 04:28:02;;;;;;;45.55;26.10;;;;;;;;;;5086147;28;20448;-60
2022/03/03 04:30:28;;;;;;;43.13;24.48;;;;;;;;;;5075525;28;20047;-60
2022/03/03 04:32:54;;;;;;;43.70;24.88;;;;;;;;;;5056292;28;20068;-60
2022/03/03 04:35:20;;;;;;;46.97;23.55;;;;;;;;;;5060597;28;20040;-60
2022/03/03 04:37:46;;;;;;;50.60;25.30;;;;;;;;;;5072151;28;20068;-60
2022/03/03 04:40:12;;;;;;;49.45;25.23;;;;;;;;;;5070174;28;20851;-60
2022/03/03 04:42:38;;;;;;;46.35;24.50;;;;;;;;;;5076992;28;20036;-59
2022/03/03 04:45:05;;;;;;;46.83;23.98;;;;;;;;;;5094424;28;20047;-59
2022/03/03 04:47:31;;;;;;;41.60;23.08;;;;;;;;;;5094720;28;20028;-59
2022/03/03 04:49:57;;;;;;;46.78;24.30;;;;;;;;;;5079356;28;20113;-59
2022/03/03 04:52:23;;;;;;;46.65;23.58;;;;;;;;;;5080982;28;20051;-60
2022/03/03 04:54:49;;;;;;;41.03;22.38;;;;;;;;;;5073783;28;20542;-60
2022/03/03 04:57:15;;;;;;;44.33;25.13;;;;;;;;;;5092728;28;20047;-60
2022/03/03 04:59:41;;;;;;;43.10;24.08;;;;;;;;;;5092680;28;20040;-60
2022/03/03 05:02:07;;;;;;;42.70;24.63;;;;;;;;;;5078928;28;20040;-60
2022/03/03 05:04:33;;;;;;;42.38;24.17;;;;;;;;;;5082168;28;20090;-60
2022/03/03 05:06:59;;;;;;;43.38;23.58;;;;;;;;;;5089174;22;20045;-59
2022/03/03 05:09:25;;;;;;;43.63;25.13;;;;;;;;;;5068485;28;20177;-59
2022/03/03 05:11:51;;;;;;;43.03;24.63;;;;;;;;;;5070961;28;20052;-59
2022/03/03 05:14:17;;;;;;;51.40;24.88;;;;;;;;;;5074542;28;20050;-60
2022/03/03 05:16:43;;;;;;;44.28;23.65;;;;;;;;;;5053805;28;20048;-59
2022/03/03 05:19:09;;;;;;;40.40;23.52;;;;;;;;;;5057660;28;20511;-59
2022/03/03 05:21:35;;;;;;;40.08;23.50;;;;;;;;;;5065075;28;20143;-59
2022/03/03 05:24:02;;;;;;;40.65;22.77;;;;;;;;;;5059030;28;20124;-59
2022/03/03 05:26:28;;;;;;;38.33;22.60;;;;;;;;;;5062263;28;20486;-59
2022/03/03 05:28:54;;;;;;;41.25;22.45;;;;;;;;;;5058715;28;20067;-59
2022/03/03 05:31:20;;;;;;;39.10;22.80;;;;;;;;;;5060155;28;20123;-59
2022/03/03 05:33:46;;;;;;;38.45;22.75;;;;;;;;;;5062788;28;20114;-59
2022/03/03 05:36:13;;;;;;;39.13;23.30;;;;;;;;;;5067253;28;20068;-59
2022/03/03 05:38:40;;;;;;;38.40;23.38;;;;;;;;;;5063811;28;20051;-59
2022/03/03 05:41:06;;;;;;;39.35;24.02;;;;;;;;;;5043423;28;20415;-62
2022/03/03 05:43:33;;;;;;;39.58;22.30;;;;;;;;;;5065092;28;20158;-59
2022/03/03 05:45:59;;;;;;;38.10;22.50;;;;;;;;;;5062540;28;20482;-59
2022/03/03 05:48:26;;;;;;;39.75;22.98;;;;;;;;;;5060457;28;20128;-59
2022/03/03 05:50:52;;;;;;;39.78;22.27;;;;;;;;;;5057291;28;20037;-59
2022/03/03 05:53:18;;;;;;;40.45;22.33;;;;;;;;;;5044081;28;20453;-59
2022/03/03 05:55:49;;;;;;;36.10;22.23;;;;;;;;;;5066620;28;20086;-59
2022/03/03 05:58:15;;;;;;;38.70;20.80;;;;;;;;;;5061719;28;20037;-59
2022/03/03 06:00:45;;;;;;;39.75;22.20;;;;;;;;;;5060308;28;20044;-59
2022/03/03 06:03:21;;;;;;;42.55;23.00;;;;;;;;;;5059176;28;20405;-59
2022/03/03 06:05:52;;;;;;;41.63;24.08;;;;;;;;;;5060320;28;20094;-59
2022/03/03 06:08:21;;;;;;;38.88;22.92;;;;;;;;;;5055417;28;20512;-59
2022/03/03 06:10:51;;;;;;;42.80;23.75;;;;;;;;;;5056268;28;20033;-59
2022/03/03 06:13:21;;;;;;;37.30;20.95;;;;;;;;;;5060033;28;20555;-59
2022/03/03 06:15:47;;;;;;;39.00;22.13;;;;;;;;;;5060742;28;20059;-59
2022/03/03 06:18:13;;;;;;;36.95;22.38;;;;;;;;;;5060371;28;20036;-59
2022/03/03 06:20:40;;;;;;;38.85;22.30;;;;;;;;;;5060893;28;20036;-59
2022/03/03 06:23:06;;;;;;;38.90;21.88;;;;;;;;;;5056638;28;20495;-59
2022/03/03 06:25:32;;;;;;;38.30;21.02;;;;;;;;;;5048148;28;20041;-59
2022/03/03 06:27:58;;;;;;;36.20;20.70;;;;;;;;;;5065145;28;20037;-59
2022/03/03 06:30:25;;;;;;;35.00;21.42;;;;;;;;;;5065380;28;20036;-59
2022/03/03 06:32:51;;;;;;;36.35;21.52;;;;;;;;;;5058056;28;20520;-59
2022/03/03 06:35:17;;;;;;;37.53;20.98;;;;;;;;;;5060686;28;20041;-59
2022/03/03 06:37:43;;;;;;;39.05;21.15;;;;;;;;;;5070880;28;20418;-59
2022/03/03 06:40:09;;;;;;;37.30;21.30;;;;;;;;;;5071701;28;20551;-59
2022/03/03 06:42:35;;;;;;;34.03;21.17;;;;;;;;;;5053664;28;20534;-59
2022/03/03 06:45:01;;;;;;;36.03;21.55;;;;;;;;;;5070165;28;20123;-59
2022/03/03 06:47:27;;;;;;;36.15;21.60;;;;;;;;;;5066103;28;20305;-59
2022/03/03 06:49:53;;;;;;;38.58;22.10;;;;;;;;;;5071138;28;20040;-59
2022/03/03 06:52:23;;;;;;;39.28;22.55;;;;;;;;;;5071999;28;20044;-59
2022/03/03 06:54:51;;;;;;;38.88;22.77;;;;;;;;;;5069703;28;20048;-59
2022/03/03 06:57:19;;;;;;;38.47;22.33;;;;;;;;;;5069003;28;20040;-59
2022/03/03 06:59:46;;;;;;;39.22;23.05;;;;;;;;;;5063592;28;20043;-59
2022/03/03 07:02:12;;;;;;;39.75;21.77;;;;;;;;;;5067706;28;20032;-59
2022/03/03 07:04:39;;;;;;;37.42;22.20;;;;;;;;;;5071794;28;20060;-59
2022/03/03 07:07:05;;;;;;;37.97;21.60;;;;;;;;;;5069296;28;20442;-59
2022/03/03 07:09:31;;;;;;;38.92;22.73;;;;;;;;;;5070483;28;20090;-59
2022/03/03 07:11:58;;;;;;;37.72;22.48;;;;;;;;;;5053579;28;20102;-59
2022/03/03 07:14:24;;;;;;;40.50;23.02;;;;;;;;;;5066827;28;20040;-59
2022/03/03 07:17:01;;;;;;;37.67;22.40;;;;;;;;;;5068354;28;20115;-59
2022/03/03 07:19:26;;;;;;;38.08;22.63;;;;;;;;;;5071193;28;20043;-59
2022/03/03 07:21:53;;;;;;;40.20;24.17;;;;;;;;;;5071210;28;20041;-59
2022/03/03 07:24:33;;;;;;;38.25;22.08;;;;;;;;;;5070251;28;20060;-59
2022/03/03 07:27:00;;;;;;;43.47;22.98;;;;;;;;;;5066904;28;20071;-59
2022/03/03 07:29:29;;;;;;;36.53;21.80;;;;;;;;;;5061221;28;20064;-59
2022/03/03 07:31:55;;;;;;;45.00;24.33;;;;;;;;;;5064622;28;20036;-59
2022/03/03 07:34:26;;;;;;;39.35;22.50;;;;;;;;;;5059245;28;20044;-59
2022/03/03 07:36:56;;;;;;;39.80;22.00;;;;;;;;;;5067524;28;20051;-59
2022/03/03 07:39:30;;;;;;;39.42;22.73;;;;;;;;;;5067934;28;20115;-59
2022/03/03 07:41:56;;;;;;;39.33;22.00;;;;;;;;;;5069254;28;20075;-59
2022/03/03 07:44:22;;;;;;;36.55;22.27;;;;;;;;;;5059049;28;20060;-59
2022/03/03 07:46:48;;;;;;;34.35;20.88;;;;;;;;;;5062823;28;20047;-59
2022/03/03 07:49:14;;;;;;;37.45;22.65;;;;;;;;;;5059973;28;20095;-59
2022/03/03 07:51:41;;;;;;;38.30;21.77;;;;;;;;;;5069092;28;20575;-59
2022/03/03 07:54:07;;;;;;;40.13;22.10;;;;;;;;;;5056678;28;20044;-59
2022/03/03 07:56:37;;;;;;;35.60;21.90;;;;;;;;;;5062212;28;20052;-59
2022/03/03 07:59:09;;;;;;;37.47;22.67;;;;;;;;;;5069668;28;20041;-59
2022/03/03 08:01:36;;;;;;;36.35;20.77;;;;;;;;;;5072017;28;20078;-59
2022/03/03 08:04:02;;;;;;;35.63;22.70;;;;;;;;;;5061874;28;20040;-59
2022/03/03 08:06:29;;;;;;;41.63;22.15;;;;;;;;;;5064506;28;20036;-59
2022/03/03 08:08:55;;;;;;;37.55;20.45;;;;;;;;;;5067132;28;20036;-59
2022/03/03 08:11:23;;;;;;;34.33;22.15;;;;;;;;;;5072379;28;20041;-59
2022/03/03 08:13:52;;;;;;;35.40;22.30;;;;;;;;;;5073099;28;20067;-59
2022/03/03 08:16:18;;;;;;;36.40;21.23;;;;;;;;;;5064793;28;20084;-59
2022/03/03 08:18:44;;;;;;;42.55;22.60;;;;;;;;;;5067615;28;20494;-59
2022/03/03 08:21:10;;;;;;;38.25;22.40;;;;;;;;;;5072265;28;20028;-59
2022/03/03 08:23:36;;;;;;;38.13;23.90;;;;;;;;;;5070735;28;20083;-59
2022/03/03 08:26:03;;;;;;;34.70;21.20;;;;;;;;;;5074390;28;20043;-59
2022/03/03 08:28:31;;;;;;;37.50;21.17;;;;;;;;;;5072522;28;20498;-59
2022/03/03 08:31:02;;;;;;;33.83;20.67;;;;;;;;;;5071715;28;20048;-59
2022/03/03 08:33:31;;;;;;;34.92;20.42;;;;;;;;;;5054620;28;20517;-59
2022/03/03 08:35:59;;;;;;;33.88;20.27;;;;;;;;;;5073747;28;20055;-59
2022/03/03 08:38:25;;;;;;;33.20;20.20;;;;;;;;;;5069670;28;20036;-59
2022/03/03 08:40:52;;;;;;;34.40;21.05;;;;;;;;;;5067782;28;20052;-59
2022/03/03 08:43:22;;;;;;;33.63;21.15;;;;;;;;;;5059141;28;20041;-60
2022/03/03 08:45:49;;;;;;;36.55;21.15;;;;;;;;;;5074377;28;20086;-59
2022/03/03 08:48:16;;;;;;;34.65;20.48;;;;;;;;;;5072051;28;20444;-59
2022/03/03 08:50:42;;;;;;;32.90;20.30;;;;;;;;;;5072441;28;20040;-59
2022/03/03 08:53:09;;;;;;;36.83;21.92;;;;;;;;;;5070702;28;20039;-59
2022/03/03 08:55:35;;;;;;;37.88;22.23;;;;;;;;;;5068901;28;20032;-59
2022/03/03 08:58:02;;;;;;;34.67;19.88;;;;;;;;;;5069754;28;20041;-59
2022/03/03 09:00:28;;;;;;;31.40;20.98;;;;;;;;;;5074371;28;20044;-59
2022/03/03 09:02:54;;;;;;;39.55;22.67;;;;;;;;;;5055319;28;20506;-59
2022/03/03 09:05:20;;;;;;;37.03;21.42;;;;;;;;;;5065060;28;20036;-59
2022/03/03 09:07:47;;;;;;;33.25;20.58;;;;;;;;;;5053396;28;20139;-59
2022/03/03 09:10:13;;;;;;;32.78;21.00;;;;;;;;;;5054928;28;20510;-59
2022/03/03 09:12:39;;;;;;;33.80;20.58;;;;;;;;;;5055690;28;20422;-59
2022/03/03 09:15:06;;;;;;;31.05;20.30;;;;;;;;;;5064913;28;20041;-59
2022/03/03 09:17:32;;;;;;;33.60;21.10;;;;;;;;;;5072379;28;20037;-59
2022/03/03 09:20:00;;;;;;;34.03;20.83;;;;;;;;;;5068127;28;20048;-59
2022/03/03 09:22:27;;;;;;;36.40;21.02;;;;;;;;;;5072032;28;20040;-59
2022/03/03 09:24:54;;;;;;;32.88;21.02;;;;;;;;;;5052785;28;20036;-59
2022/03/03 09:27:20;;;;;;;33.03;20.85;;;;;;;;;;5070987;28;20048;-59
2022/03/03 09:29:46;;;;;;;33.03;20.67;;;;;;;;;;5070387;28;20064;-59
2022/03/03 09:32:13;;;;;;;33.90;21.40;;;;;;;;;;5068916;28;20102;-59
2022/03/03 09:34:39;;;;;;;33.72;20.48;;;;;;;;;;5066113;28;20048;-59
2022/03/03 09:37:05;;;;;;;31.27;20.00;;;;;;;;;;5070131;28;20032;-59
2022/03/03 09:39:31;;;;;;;27.67;18.63;;;;;;;;;;5067001;28;20074;-59
2022/03/03 09:41:57;;;;;;;30.23;20.58;;;;;;;;;;5064119;28;20332;-59
2022/03/03 09:44:27;;;;;;;31.27;19.50;;;;;;;;;;5068266;28;20043;-59
2022/03/03 09:46:55;;;;;;;31.90;19.88;;;;;;;;;;5069292;28;20063;-59
2022/03/03 09:49:21;;;;;;;33.10;21.08;;;;;;;;;;5069565;28;20036;-59
2022/03/03 09:51:50;;;;;;;32.15;19.55;;;;;;;;;;5063866;28;20032;-59
2022/03/03 09:54:16;;;;;;;33.88;20.23;;;;;;;;;;5064619;28;20042;-59
2022/03/03 09:56:42;;;;;;;29.30;19.00;;;;;;;;;;5059494;28;20074;-59
2022/03/03 09:59:08;;;;;;;27.20;18.60;;;;;;;;;;5060900;28;20068;-59
2022/03/03 10:01:35;;;;;;;28.20;18.75;;;;;;;;;;5071868;28;20093;-60
2022/03/03 10:04:20;;;;;;;29.67;19.63;;;;;;;;;;5070856;28;20036;-60
2022/03/03 10:06:47;;;;;;;22.67;16.83;;;;;;;;;;5071421;28;20048;-59
2022/03/03 10:09:13;;;;;;;26.35;18.27;;;;;;;;;;5067112;28;20036;-59
2022/03/03 10:11:40;;;;;;;29.33;19.52;;;;;;;;;;5066764;28;20498;-59
2022/03/03 10:14:06;;;;;;;26.73;18.38;;;;;;;;;;5064530;28;20047;-59
2022/03/03 10:16:32;;;;;;;29.27;18.15;;;;;;;;;;5065496;28;20111;-59
2022/03/03 10:19:00;;;;;;;26.98;18.48;;;;;;;;;;5069955;28;20090;-59
2022/03/03 10:21:27;;;;;;;27.38;18.70;;;;;;;;;;5068760;28;20041;-59
2022/03/03 10:23:53;;;;;;;27.13;18.23;;;;;;;;;;5065807;28;20039;-59
2022/03/03 10:26:19;;;;;;;28.60;18.52;;;;;;;;;;5069981;28;20044;-60
2022/03/03 10:28:49;;;;;;;28.27;19.02;;;;;;;;;;5064168;28;20032;-60
2022/03/03 10:31:22;;;;;;;30.15;18.98;;;;;;;;;;5052150;28;20045;-60
2022/03/03 10:33:49;;;;;;;26.90;17.20;;;;;;;;;;5062419;28;20119;-59
2022/03/03 10:36:15;;;;;;;26.48;17.17;;;;;;;;;;5064266;28;20422;-59
2022/03/03 10:38:51;;;;;;;28.33;18.33;;;;;;;;;;5071855;28;20045;-59
2022/03/03 10:41:31;;;;;;;26.27;17.60;;;;;;;;;;5072446;28;20071;-59
2022/03/03 10:43:57;;;;;;;24.90;16.75;;;;;;;;;;5071561;28;20086;-59
2022/03/03 10:46:23;;;;;;;25.73;17.23;;;;;;;;;;5053700;28;20106;-60
2022/03/03 10:48:49;;;;;;;23.27;16.38;;;;;;;;;;5071937;28;20043;-59
2022/03/03 10:51:16;;;;;;;23.90;16.23;;;;;;;;;;5064833;28;20040;-59
2022/03/03 10:53:43;;;;;;;24.70;17.15;;;;;;;;;;5072623;28;20485;-59
2022/03/03 10:56:15;;;;;;;25.10;17.30;;;;;;;;;;5072278;28;20046;-59
2022/03/03 10:58:49;;;;;;;25.08;16.88;;;;;;;;;;5066983;28;20418;-59
2022/03/03 11:01:18;;;;;;;24.65;16.55;;;;;;;;;;5053874;28;20059;-59
2022/03/03 11:03:49;;;;;;;23.67;17.17;;;;;;;;;;5071762;28;20040;-59
2022/03/03 11:06:15;;;;;;;;;;;;;;;;;;5070728;28;20055;-60
2022/03/03 11:08:41;;;;;;;23.88;15.68;;;;;;;;;;5077856;22;19920;-59
2022/03/03 11:11:08;;;;;;;22.35;15.57;;;;;;;;;;5068463;28;20100;-60
2022/03/03 11:13:35;;;;;;;26.98;15.52;;;;;;;;;;5072075;28;20040;-59
2022/03/03 11:16:01;;;;;;;22.95;15.30;;;;;;;;;;5064633;28;20106;-59
2022/03/03 11:18:27;;;;;;;22.55;15.05;;;;;;;;;;5057827;28;20401;-60
2022/03/03 11:20:53;;;;;;;22.70;14.93;;;;;;;;;;5085665;28;20036;-60
2022/03/03 11:23:20;;;;;;;19.13;14.50;;;;;;;;;;5084571;28;20045;-60
2022/03/03 11:25:47;;;;;;;20.63;14.55;;;;;;;;;;5070172;28;20048;-60
2022/03/03 11:28:18;;;;;;;21.98;14.73;;;;;;;;;;5064343;28;20404;-59
2022/03/03 11:30:48;;;;;;;21.27;14.45;;;;;;;;;;5072734;28;20045;-59
2022/03/03 11:33:26;;;;;;;21.42;14.07;;;;;;;;;;5071074;28;20046;-60
2022/03/03 11:35:53;;;;;;;24.27;14.32;;;;;;;;;;5062391;28;20041;-60
2022/03/03 11:38:20;;;;;;;22.17;13.73;;;;;;;;;;5050929;28;20080;-60
2022/03/03 11:40:55;;;;;;;23.35;15.50;;;;;;;;;;5051435;28;20044;-59
2022/03/03 11:43:21;;;;;;;22.52;14.15;;;;;;;;;;5051648;28;20041;-60
2022/03/03 11:45:51;;;;;;;23.70;14.82;;;;;;;;;;5049583;28;20640;-59
2022/03/03 11:48:22;;;;;;;20.90;13.65;;;;;;;;;;5071210;28;20044;-59
2022/03/03 11:50:48;;;;;;;22.50;13.77;;;;;;;;;;5071032;28;20044;-59
2022/03/03 11:53:18;;;;;;;21.00;13.95;;;;;;;;;;5071565;28;20402;-59
2022/03/03 11:55:58;;;;;;;22.95;13.40;;;;;;;;;;5071564;28;20044;-59
2022/03/03 11:58:31;;;;;;;19.88;13.50;;;;;;;;;;5070347;28;20047;-59
2022/03/03 12:00:57;;;;;;;20.67;12.80;;;;;;;;;;5070523;28;20324;-60
2022/03/03 12:03:24;;;;;;;20.13;13.63;;;;;;;;;;5067713;28;20036;-59
2022/03/03 12:06:04;;;;;;;20.48;13.30;;;;;;;;;;5071761;28;20395;-59
2022/03/03 12:08:31;;;;;;;17.98;12.45;;;;;;;;;;5070619;28;20052;-60
2022/03/03 12:11:07;;;;;;;19.83;12.73;;;;;;;;;;5071152;28;20064;-59
2022/03/03 12:13:39;;;;;;;16.38;10.50;;;;;;;;;;5059260;28;20079;-59
2022/03/03 12:16:19;;;;;;;16.75;11.07;;;;;;;;;;5070862;28;20490;-57
2022/03/03 12:18:47;;;;;;;17.10;11.70;;;;;;;;;;5070997;28;20222;-57
2022/03/03 12:21:19;;;;;;;17.98;12.75;;;;;;;;;;5068636;28;20383;-58
2022/03/03 12:23:45;;;;;;;18.52;12.07;;;;;;;;;;5070574;28;20078;-57
2022/03/03 12:26:11;;;;;;;20.33;12.80;;;;;;;;;;5077615;28;20048;-57
2022/03/03 12:28:45;;;;;;;18.77;11.98;;;;;;;;;;5070893;28;20041;-58
2022/03/03 12:31:30;;;;;;;16.08;11.35;;;;;;;;;;5070962;28;20634;-59
2022/03/03 12:34:01;;;;;;;17.35;11.15;;;;;;;;;;5070988;28;20072;-58
2022/03/03 12:36:27;;;;;;;19.17;12.75;;;;;;;;;;5071017;28;20051;-58
2022/03/03 12:38:54;;;;;;;17.95;11.10;;;;;;;;;;5069118;28;20434;-58
2022/03/03 12:41:21;;;;;;;16.45;11.57;;;;;;;;;;5070418;28;20450;-58
2022/03/03 12:43:48;;;;;;;13.27;10.07;;;;;;;;;;5082382;28;20040;-59
2022/03/03 12:46:14;;;;;;;16.30;11.52;;;;;;;;;;5091072;28;20048;-58
2022/03/03 12:48:41;;;;;;;16.48;10.40;;;;;;;;;;5093124;28;20442;-59
2022/03/03 12:51:08;;;;;;;18.88;10.73;;;;;;;;;;5094447;28;20051;-59
2022/03/03 12:53:47;;;;;;;17.08;10.57;;;;;;;;;;5090991;28;20036;-59
2022/03/03 12:56:20;;;;;;;14.48;9.52;;;;;;;;;;5072522;28;20051;-58
2022/03/03 12:58:46;;;;;;;16.02;10.55;;;;;;;;;;5054189;28;20107;-58
2022/03/03 13:01:12;;;;;;;20.35;11.05;;;;;;;;;;5054057;28;20158;-59
2022/03/03 13:03:39;;;;;;;12.85;8.10;;;;;;;;;;5053938;28;20068;-58
2022/03/03 13:06:05;;;;;;;13.35;9.50;;;;;;;;;;5054134;28;20044;-59
2022/03/03 13:08:36;;;;;;;17.80;11.70;;;;;;;;;;5068767;28;20041;-59
2022/03/03 13:11:03;;;;;;;15.37;10.13;;;;;;;;;;5073496;28;20482;-59
2022/03/03 13:13:30;;;;;;;14.32;10.07;;;;;;;;;;5073679;28;20285;-58
2022/03/03 13:15:56;;;;;;;15.23;9.98;;;;;;;;;;5072712;28;20079;-59
2022/03/03 13:18:24;;;;;;;15.27;9.68;;;;;;;;;;5071585;28;20032;-59
2022/03/03 13:20:56;;;;;;;14.00;9.85;;;;;;;;;;5072013;28;20165;-58
2022/03/03 13:23:23;;;;;;;11.90;8.57;;;;;;;;;;5072794;28;20045;-59
2022/03/03 13:26:06;;;;;;;12.85;9.18;;;;;;;;;;5072534;28;20071;-59
2022/03/03 13:28:32;;;;;;;14.60;9.80;;;;;;;;;;5073235;28;20406;-59
2022/03/03 13:31:02;;;;;;;14.70;9.73;;;;;;;;;;5073686;28;20052;-58
2022/03/03 13:33:43;;;;;;;13.77;9.15;;;;;;;;;;5074109;28;20044;-58
2022/03/03 13:36:38;;;;;;;14.60;10.10;;;;;;;;;;5074788;28;20044;-58
2022/03/03 13:39:07;;;;;;;14.20;9.15;;;;;;;;;;5090869;28;20127;-59
2022/03/03 13:41:37;;;;;;;14.13;9.68;;;;;;;;;;5088912;28;20043;-58
2022/03/03 13:44:10;;;;;;;13.77;9.15;;;;;;;;;;5073712;28;20040;-58
2022/03/03 13:46:36;;;;;;;13.73;9.75;;;;;;;;;;5072633;28;20127;-59
2022/03/03 13:49:02;;;;;;;12.65;9.35;;;;;;;;;;5072916;28;20495;-58
2022/03/03 13:51:28;;;;;;;13.13;9.05;;;;;;;;;;5076270;28;20105;-59
2022/03/03 13:53:58;;;;;;;16.38;11.05;;;;;;;;;;5073680;28;20033;-59
2022/03/03 13:56:28;;;;;;;14.50;9.83;;;;;;;;;;5072551;28;20177;-59
2022/03/03 13:59:04;;;;;;;17.02;11.07;;;;;;;;;;5072326;28;20044;-59
2022/03/03 14:01:29;;;;;;;15.93;10.55;;;;;;;;;;5073157;28;20045;-59
2022/03/03 14:03:55;;;;;;;15.88;10.70;;;;;;;;;;5072285;28;20116;-59
2022/03/03 14:06:21;;;;;;;17.17;10.60;;;;;;;;;;5073123;28;20041;-59
2022/03/03 14:08:49;;;;;;;15.93;10.80;;;;;;;;;;5072695;28;20395;-59
2022/03/03 14:11:25;;;;;;;18.45;11.40;;;;;;;;;;5071972;28;20513;-59
2022/03/03 14:13:54;;;;;;;17.15;11.25;;;;;;;;;;5053029;28;20044;-58
2022/03/03 14:16:21;;;;;;;16.77;9.90;;;;;;;;;;5061626;28;20043;-59
2022/03/03 14:18:48;;;;;;;14.98;9.80;;;;;;;;;;5071822;28;20040;-59
2022/03/03 14:21:14;;;;;;;16.92;10.65;;;;;;;;;;5072176;28;20127;-58